Carthage Lake, Illinois
Current Conditions -  °F | °C
As of 4:53 PM on Sunday 21 Dec 2014 (Local Time) from KBRL Reporting Station
Overcast Overcast  
Wind Chill: 34°   Ceiling: 2600
Heat Index: 41°   Visibility: 10mi
Dew Point: 35°   Wind: 13mph
Humidity: 79%   Direction: 160°SSE
Pressure: 29.94"   Gusts: NA
Location:  40.7646°N, 91.0498°W
Report Text: KBRL 212253Z AUTO 16011KT 10SM BKN026 OVC042 05/02 A2994 RMK AO2 SLP145 T00500017
Loading
Personal Weather Stations






























Interactive Weather Map New forecast layout! Learn more

10-Day Weather Forecast

Advertisements
Track Severe Weather on mobile